createdAt,value
2019-05-10T00:01:59.047Z,3.43
2019-05-10T00:04:46.603Z,3.40
2019-05-10T00:07:34.414Z,3.67
2019-05-10T00:10:05.525Z,3.10
2019-05-10T00:12:39.885Z,3.40
2019-05-10T00:15:10.763Z,3.60
2019-05-10T00:17:40.427Z,3.70
2019-05-10T00:20:10.114Z,3.70
2019-05-10T00:22:39.775Z,3.43
2019-05-10T00:25:09.534Z,3.77
2019-05-10T00:27:39.208Z,3.23
2019-05-10T00:30:10.013Z,3.40
2019-05-10T00:32:40.662Z,3.20
2019-05-10T00:35:10.267Z,3.73
2019-05-10T00:37:39.838Z,3.60
2019-05-10T00:40:09.609Z,4.00
2019-05-10T00:42:39.248Z,4.27
2019-05-10T00:45:08.836Z,3.67
2019-05-10T00:47:38.503Z,3.53
2019-05-10T00:50:08.576Z,3.47
2019-05-10T00:52:38.152Z,4.03
2019-05-10T00:55:18.305Z,3.77
2019-05-10T00:57:39.268Z,3.87
2019-05-10T01:00:10.029Z,4.00
2019-05-10T01:02:39.707Z,4.10
2019-05-10T01:05:09.425Z,3.77
2019-05-10T01:07:39.097Z,3.90
2019-05-10T01:10:08.978Z,4.87
2019-05-10T01:12:38.611Z,4.30
2019-05-10T01:15:09.490Z,4.47
2019-05-10T01:17:40.134Z,4.23
2019-05-10T01:20:09.993Z,4.17
2019-05-10T01:22:39.668Z,4.20
2019-05-10T01:25:10.068Z,4.07
2019-05-10T01:27:39.780Z,4.17
2019-05-10T01:30:10.006Z,4.40
2019-05-10T01:32:39.669Z,4.47
2019-05-10T01:35:09.438Z,4.43
2019-05-10T01:37:39.177Z,4.30
2019-05-10T01:40:08.820Z,4.20
2019-05-10T01:42:38.538Z,4.43
2019-05-10T01:45:08.758Z,4.30
2019-05-10T01:47:39.408Z,3.97
2019-05-10T01:50:09.497Z,4.67
2019-05-10T01:52:39.072Z,4.50
2019-05-10T01:55:09.480Z,4.00
2019-05-10T01:57:39.126Z,4.37
2019-05-10T02:00:10.134Z,4.30
2019-05-10T02:02:39.860Z,4.47
2019-05-10T02:05:10.037Z,4.60
2019-05-10T02:07:39.790Z,4.57
2019-05-10T02:10:10.049Z,3.87
2019-05-10T02:12:39.790Z,4.20
2019-05-10T02:15:09.701Z,4.43
2019-05-10T02:17:39.365Z,4.53
2019-05-10T02:20:09.397Z,4.30
2019-05-10T02:22:39.106Z,4.03
2019-05-10T02:25:08.877Z,4.43
2019-05-10T02:27:38.593Z,4.40
2019-05-10T02:30:08.711Z,4.40
2019-05-10T02:32:38.316Z,4.03
2019-05-10T02:35:08.376Z,4.17
2019-05-10T02:37:37.984Z,4.50
2019-05-10T02:40:07.887Z,4.37
2019-05-10T02:42:37.632Z,4.47
2019-05-10T02:45:08.106Z,4.03
2019-05-10T02:47:37.764Z,4.90
2019-05-10T02:50:08.296Z,4.13
2019-05-10T02:52:37.924Z,4.60
2019-05-10T02:55:07.841Z,4.03
2019-05-10T02:57:37.617Z,4.50
2019-05-10T03:00:09.399Z,5.10
2019-05-10T03:02:39.749Z,4.77
2019-05-10T03:05:10.639Z,4.60
2019-05-10T03:07:40.211Z,4.50
2019-05-10T03:10:11.294Z,4.30
2019-05-10T03:12:41.765Z,4.40
2019-05-10T03:15:12.704Z,4.43
2019-05-10T03:17:42.492Z,4.60
2019-05-10T03:20:12.734Z,4.27
2019-05-10T03:22:43.965Z,4.60
2019-05-10T03:25:14.407Z,4.70
2019-05-10T03:27:44.454Z,4.27
2019-05-10T03:30:14.340Z,4.50
2019-05-10T03:32:43.990Z,4.13
2019-05-10T03:35:13.707Z,4.87
2019-05-10T03:37:43.366Z,4.17
2019-05-10T03:40:14.082Z,4.30
2019-05-10T03:42:43.761Z,4.77
2019-05-10T03:45:13.406Z,4.70
2019-05-10T03:47:43.040Z,4.60
2019-05-10T03:50:12.918Z,4.87
2019-05-10T03:52:42.628Z,4.83
2019-05-10T03:55:12.413Z,4.83
2019-05-10T03:57:43.040Z,4.47
2019-05-10T04:00:13.665Z,4.87
2019-05-10T04:02:43.272Z,4.20
2019-05-10T04:05:12.975Z,4.90
2019-05-10T04:07:42.543Z,5.50
2019-05-10T04:10:13.847Z,4.80
2019-05-10T04:12:43.424Z,4.80
2019-05-10T04:15:13.119Z,4.57
2019-05-10T04:17:42.820Z,4.80
2019-05-10T04:20:13.008Z,5.50
2019-05-10T04:22:42.591Z,5.33
2019-05-10T04:25:12.462Z,5.43
2019-05-10T04:27:42.058Z,4.63
2019-05-10T04:30:12.015Z,5.83
2019-05-10T04:32:41.752Z,5.80
2019-05-10T04:35:11.642Z,4.87
2019-05-10T04:37:41.299Z,5.80
2019-05-10T04:40:11.292Z,5.80
2019-05-10T04:42:40.965Z,5.17
2019-05-10T04:45:10.617Z,4.63
2019-05-10T04:47:40.348Z,5.10
2019-05-10T04:50:10.314Z,5.37
2019-05-10T04:52:39.949Z,5.60
2019-05-10T04:55:09.729Z,5.70
2019-05-10T04:57:50.135Z,5.37
2019-05-10T05:00:10.753Z,5.47
2019-05-10T05:02:41.237Z,5.37
2019-05-10T05:05:11.049Z,5.90
2019-05-10T05:07:40.720Z,6.53
2019-05-10T05:10:10.532Z,6.90
2019-05-10T05:12:40.205Z,6.80
2019-05-10T05:15:11.044Z,6.70
2019-05-10T05:17:41.683Z,6.47
2019-05-10T05:20:11.384Z,6.00
2019-05-10T05:22:40.952Z,6.37
2019-05-10T05:25:10.654Z,7.10
2019-05-10T05:27:40.889Z,6.80
2019-05-10T05:30:10.769Z,7.23
2019-05-10T05:32:44.486Z,7.37
2019-05-10T05:35:13.321Z,7.73
2019-05-10T05:37:42.883Z,8.53
2019-05-10T05:40:12.791Z,9.00
2019-05-10T05:42:42.453Z,8.23
2019-05-10T05:45:12.488Z,7.87
2019-05-10T05:47:44.837Z,7.03
2019-05-10T05:50:14.389Z,7.10
2019-05-10T05:52:45.062Z,7.37
2019-05-10T05:55:14.659Z,6.70
2019-05-10T05:57:44.304Z,6.33
2019-05-10T06:00:14.056Z,6.60
2019-05-10T06:02:44.845Z,5.90
2019-05-10T06:05:32.708Z,5.87
2019-05-10T06:07:46.202Z,6.10
2019-05-10T06:10:17.562Z,6.07
2019-05-10T06:12:50.560Z,6.00
2019-05-10T06:15:23.188Z,5.73
2019-05-10T06:17:56.687Z,5.97
2019-05-10T06:20:21.233Z,6.07
2019-05-10T06:23:05.620Z,5.97
2019-05-10T06:25:37.599Z,5.83
2019-05-10T06:27:53.496Z,6.70
2019-05-10T06:30:23.658Z,6.00
2019-05-10T06:33:00.747Z,6.83
2019-05-10T06:35:24.700Z,6.70
2019-05-10T06:37:54.296Z,5.87
2019-05-10T06:40:33.225Z,6.53
2019-05-10T06:42:55.226Z,6.03
2019-05-10T06:45:24.942Z,6.93
2019-05-10T06:47:54.510Z,6.67
2019-05-10T06:50:29.808Z,6.13
2019-05-10T06:53:00.387Z,5.57
2019-05-10T06:55:27.828Z,5.67
2019-05-10T06:58:00.715Z,6.10
2019-05-10T07:00:28.784Z,5.83
2019-05-10T07:02:58.440Z,6.67
2019-05-10T07:05:28.035Z,6.57
2019-05-10T07:07:59.986Z,6.07
2019-05-10T07:10:33.831Z,6.47
2019-05-10T07:13:03.540Z,6.17
2019-05-10T07:15:35.673Z,6.57
2019-05-10T07:18:02.781Z,5.97
2019-05-10T07:20:32.497Z,6.53
2019-05-10T07:23:06.306Z,6.40
2019-05-10T07:25:37.743Z,6.30
2019-05-10T07:28:09.273Z,6.20
2019-05-10T07:30:41.172Z,6.23
2019-05-10T07:33:08.977Z,11.13
2019-05-10T07:35:38.956Z,9.17
2019-05-10T07:38:08.883Z,7.10
2019-05-10T07:40:38.598Z,7.97
2019-05-10T07:43:08.225Z,8.77
2019-05-10T07:45:37.809Z,6.70
2019-05-10T07:48:08.462Z,6.47
2019-05-10T07:50:42.294Z,6.70
2019-05-10T07:53:09.992Z,6.77
2019-05-10T07:55:39.754Z,6.90
2019-05-10T07:58:09.407Z,6.30
2019-05-10T08:00:44.643Z,6.20
2019-05-10T08:03:16.153Z,6.77
2019-05-10T08:05:46.112Z,6.20
2019-05-10T08:08:12.901Z,7.30
2019-05-10T08:10:42.474Z,6.00
2019-05-10T08:13:15.324Z,6.90
2019-05-10T08:15:43.335Z,5.97
2019-05-10T08:18:15.327Z,5.90
2019-05-10T08:20:53.527Z,5.83
2019-05-10T08:23:18.105Z,6.03
2019-05-10T08:25:47.316Z,6.83
2019-05-10T08:28:17.076Z,6.20
2019-05-10T08:30:53.625Z,6.07
2019-05-10T08:33:18.538Z,5.87
2019-05-10T08:35:54.561Z,6.37
2019-05-10T08:38:21.782Z,6.80
2019-05-10T08:40:52.737Z,6.33
2019-05-10T08:43:24.725Z,6.07
2019-05-10T08:45:53.608Z,6.70
2019-05-10T08:48:23.466Z,6.17
2019-05-10T08:50:57.231Z,5.57
2019-05-10T08:53:24.283Z,6.50
2019-05-10T08:55:54.004Z,6.47
2019-05-10T08:58:31.635Z,5.73
2019-05-10T09:01:14.664Z,5.87
2019-05-10T09:03:26.133Z,5.93
2019-05-10T09:05:55.799Z,6.10
2019-05-10T09:08:28.578Z,6.47
2019-05-10T09:10:56.731Z,6.40
2019-05-10T09:13:28.632Z,6.20
2019-05-10T09:15:57.596Z,6.43
2019-05-10T09:18:27.320Z,6.30
2019-05-10T09:21:00.324Z,5.70
2019-05-10T09:23:28.104Z,5.70
2019-05-10T09:26:03.716Z,6.23
2019-05-10T09:28:29.052Z,6.67
2019-05-10T09:31:06.616Z,5.80
2019-05-10T09:33:31.889Z,5.70
2019-05-10T09:36:02.987Z,5.43
2019-05-10T09:38:34.902Z,6.27
2019-05-10T09:41:03.569Z,5.73
2019-05-10T09:43:33.282Z,5.53
2019-05-10T09:46:02.974Z,5.67
2019-05-10T09:48:33.329Z,5.30
2019-05-10T09:51:04.194Z,5.43
2019-05-10T09:53:34.231Z,5.47
2019-05-10T09:56:04.178Z,5.73
2019-05-10T09:58:33.854Z,5.50
2019-05-10T10:01:14.702Z,5.33
2019-05-10T10:03:39.903Z,5.50
2019-05-10T10:06:10.275Z,4.90
2019-05-10T10:08:38.393Z,5.17
2019-05-10T10:11:15.291Z,5.53
2019-05-10T10:13:43.614Z,5.73
2019-05-10T10:16:14.769Z,5.10
2019-05-10T10:18:42.364Z,5.03
2019-05-10T10:21:13.231Z,5.47
2019-05-10T10:23:43.072Z,5.77
2019-05-10T10:26:17.849Z,5.57
2019-05-10T10:28:49.544Z,5.57
2019-05-10T10:31:27.036Z,6.00
2019-05-10T10:33:54.914Z,5.83
2019-05-10T10:36:19.098Z,5.07
2019-05-10T10:38:49.931Z,5.90
2019-05-10T10:41:26.067Z,5.40
2019-05-10T10:43:50.894Z,5.73
2019-05-10T10:46:20.580Z,5.27
2019-05-10T10:48:51.487Z,5.97
2019-05-10T10:51:21.392Z,5.20
2019-05-10T10:53:54.462Z,4.87
2019-05-10T10:56:22.475Z,4.87
2019-05-10T10:58:52.163Z,4.67
2019-05-10T11:01:25.601Z,5.47
2019-05-10T11:03:53.211Z,4.90
2019-05-10T11:06:22.858Z,4.87
2019-05-10T11:08:52.534Z,5.10
2019-05-10T11:11:22.258Z,5.07
2019-05-10T11:14:00.514Z,4.50
2019-05-10T11:16:23.195Z,3.93
2019-05-10T11:18:52.844Z,5.23
2019-05-10T11:21:23.424Z,4.90
2019-05-10T11:23:53.871Z,4.60
2019-05-10T11:26:26.900Z,3.93
2019-05-10T11:28:54.926Z,4.17
2019-05-10T11:31:24.498Z,4.83
2019-05-10T11:33:58.432Z,4.70
2019-05-10T11:36:25.380Z,4.50
2019-05-10T11:38:58.400Z,4.47
2019-05-10T11:41:26.333Z,4.87
2019-05-10T11:43:58.120Z,4.13
2019-05-10T11:46:28.077Z,4.13
2019-05-10T11:48:58.307Z,4.57
2019-05-10T11:51:28.134Z,4.20
2019-05-10T11:53:59.662Z,4.27
2019-05-10T11:56:32.018Z,3.77
2019-05-10T11:59:02.456Z,3.80
2019-05-10T12:01:32.950Z,3.83
2019-05-10T12:04:05.140Z,3.93
2019-05-10T12:06:33.816Z,3.70
2019-05-10T12:09:05.170Z,4.07
2019-05-10T12:11:43.643Z,3.57
2019-05-10T12:14:06.128Z,3.70
2019-05-10T12:16:35.819Z,3.80
2019-05-10T12:21:37.034Z,3.20
2019-05-10T12:24:24.395Z,3.90
2019-05-10T12:26:05.395Z,3.47
2019-05-10T12:29:13.511Z,3.10
2019-05-10T12:31:41.523Z,3.50
2019-05-10T12:34:14.471Z,3.60
2019-05-10T12:36:43.591Z,3.80
2019-05-10T12:39:13.309Z,3.43
2019-05-10T12:41:48.420Z,3.13
2019-05-10T12:44:14.276Z,2.80
2019-05-10T12:46:43.943Z,3.10
2019-05-10T12:49:13.616Z,2.90
2019-05-10T12:51:43.358Z,3.20
2019-05-10T12:54:13.117Z,2.80
2019-05-10T12:56:45.878Z,2.80
2019-05-10T12:59:14.052Z,2.87
2019-05-10T13:01:44.718Z,3.00
2019-05-10T13:04:16.776Z,2.70
2019-05-10T13:06:45.668Z,2.60
2019-05-10T13:09:15.341Z,2.60
2019-05-10T13:11:45.061Z,2.50
2019-05-10T13:14:14.739Z,2.57
2019-05-10T13:16:44.341Z,2.50
2019-05-10T13:19:19.596Z,2.93
2019-05-10T13:21:45.165Z,2.70
2019-05-10T13:24:14.815Z,2.43
2019-05-10T13:26:44.494Z,2.50
2019-05-10T13:29:14.074Z,2.73
2019-05-10T13:31:44.462Z,2.40
2019-05-10T13:34:14.102Z,2.50
2019-05-10T13:36:43.857Z,2.37
2019-05-10T13:39:13.437Z,2.30
2019-05-10T13:41:43.173Z,2.60
2019-05-10T13:44:12.854Z,2.43
2019-05-10T13:46:42.574Z,2.70
2019-05-10T13:49:12.415Z,2.67
2019-05-10T13:51:42.130Z,2.43
2019-05-10T13:54:11.733Z,2.40
2019-05-10T13:56:45.162Z,2.67
2019-05-10T13:59:17.936Z,2.70
2019-05-10T14:01:44.166Z,2.60
2019-05-10T14:04:15.210Z,2.50
2019-05-10T14:06:44.843Z,2.43
2019-05-10T14:09:14.449Z,2.60
2019-05-10T14:11:46.804Z,2.13
2019-05-10T14:14:20.474Z,2.33
2019-05-10T14:16:46.759Z,1.93
2019-05-10T14:19:23.035Z,2.20
2019-05-10T14:21:47.852Z,2.50
2019-05-10T14:24:17.565Z,2.50
2019-05-10T14:26:51.312Z,2.27
2019-05-10T14:29:19.571Z,2.70
2019-05-10T14:31:49.216Z,2.40
2019-05-10T14:34:19.929Z,2.30
2019-05-10T14:36:49.664Z,2.43
2019-05-10T14:39:19.337Z,2.50
2019-05-10T14:41:50.842Z,2.60
2019-05-10T14:44:20.325Z,2.40
2019-05-10T14:46:49.989Z,2.13
2019-05-10T14:49:19.834Z,2.60
2019-05-10T14:51:58.909Z,2.33
2019-05-10T14:54:20.828Z,2.20
2019-05-10T14:56:53.770Z,2.30
2019-05-10T14:59:21.860Z,2.67
2019-05-10T15:01:51.666Z,12.97
2019-05-10T15:04:43.721Z,2.50
2019-05-10T15:06:52.613Z,2.30
2019-05-10T15:09:24.248Z,2.10
2019-05-10T15:11:53.545Z,2.33
2019-05-10T15:14:23.564Z,2.20
2019-05-10T15:16:53.305Z,2.27
2019-05-10T15:19:27.178Z,2.33
2019-05-10T15:21:54.270Z,2.50
2019-05-10T15:24:23.972Z,5.67
2019-05-10T15:26:53.767Z,3.80
2019-05-10T15:29:24.824Z,4.40
2019-05-10T15:31:54.611Z,4.77
2019-05-10T15:34:24.323Z,2.20
2019-05-10T15:36:53.894Z,2.10
2019-05-10T15:39:28.649Z,2.13
2019-05-10T15:41:59.271Z,2.10
2019-05-10T15:44:31.414Z,2.73
2019-05-10T15:46:57.578Z,2.80
2019-05-10T15:49:27.287Z,3.70
2019-05-10T15:52:16.212Z,6.40
2019-05-10T15:54:28.434Z,3.70
2019-05-10T15:56:58.190Z,3.30
2019-05-10T15:59:27.968Z,2.57
2019-05-10T16:01:57.720Z,2.20
2019-05-10T16:04:27.483Z,4.00
2019-05-10T16:06:57.232Z,2.65
2019-05-10T16:09:26.913Z,2.10
2019-05-10T16:12:01.889Z,1.83
2019-05-10T16:14:32.966Z,1.97
2019-05-10T16:16:59.033Z,3.07
2019-05-10T16:19:28.688Z,6.70
2019-05-10T16:21:58.360Z,2.20
2019-05-10T16:24:29.084Z,3.27
2019-05-10T16:27:00.207Z,2.27
2019-05-10T16:29:33.653Z,1.70
2019-05-10T16:32:01.169Z,1.60
2019-05-10T16:34:32.307Z,4.23
2019-05-10T16:37:02.082Z,1.77
2019-05-10T16:39:31.704Z,1.90
2019-05-10T16:42:01.267Z,4.83
2019-05-10T16:44:30.874Z,1.80
2019-05-10T16:47:00.533Z,1.60
2019-05-10T16:49:30.175Z,1.53
2019-05-10T16:51:59.842Z,1.60
2019-05-10T16:54:29.863Z,1.80
2019-05-10T16:57:01.176Z,1.67
2019-05-10T16:59:31.475Z,1.60
2019-05-10T17:02:04.343Z,1.63
2019-05-10T17:04:37.846Z,2.20
2019-05-10T17:07:03.766Z,2.50
2019-05-10T17:09:33.330Z,1.90
2019-05-10T17:12:02.955Z,1.97
2019-05-10T17:14:32.605Z,1.80
2019-05-10T17:17:02.198Z,2.20
2019-05-10T17:19:34.362Z,2.50
2019-05-10T17:22:03.062Z,2.60
2019-05-10T17:24:32.669Z,2.60
2019-05-10T17:27:03.325Z,2.60
2019-05-10T17:29:32.997Z,2.50
2019-05-10T17:32:02.714Z,2.77
2019-05-10T17:34:32.421Z,2.80
2019-05-10T17:37:02.115Z,2.40
2019-05-10T17:39:34.026Z,2.60
2019-05-10T17:42:04.858Z,2.63
2019-05-10T17:44:34.368Z,3.17
2019-05-10T17:47:04.127Z,2.77
2019-05-10T17:49:33.748Z,3.00
2019-05-10T17:52:03.400Z,3.30
2019-05-10T17:54:33.756Z,2.90
2019-05-10T17:57:04.268Z,3.00
2019-05-10T17:59:33.929Z,3.10
2019-05-10T18:02:04.586Z,3.10
2019-05-10T18:04:34.157Z,3.00
2019-05-10T18:07:03.823Z,2.50
2019-05-10T18:09:33.493Z,4.23
2019-05-10T18:12:03.090Z,2.67
2019-05-10T18:14:33.480Z,2.20
2019-05-10T18:17:03.236Z,2.30
2019-05-10T18:19:33.403Z,1.53
2019-05-10T18:22:06.405Z,1.53
2019-05-10T18:24:36.299Z,1.70
2019-05-10T18:27:05.512Z,1.73
2019-05-10T18:29:35.109Z,1.73
2019-05-10T18:32:04.700Z,1.50
2019-05-10T18:34:35.520Z,1.40
2019-05-10T18:37:07.331Z,1.63
2019-05-10T18:39:36.975Z,1.50
2019-05-10T18:42:06.705Z,1.43
2019-05-10T18:44:36.373Z,1.70
2019-05-10T18:47:06.064Z,1.60
2019-05-10T18:49:35.690Z,1.70
2019-05-10T18:52:06.619Z,1.63
2019-05-10T18:54:38.510Z,1.50
2019-05-10T18:57:11.558Z,1.60
2019-05-10T18:59:39.781Z,1.50
2019-05-10T19:02:11.892Z,1.40
2019-05-10T19:04:45.801Z,1.60
2019-05-10T19:07:12.513Z,1.40
2019-05-10T19:09:42.213Z,1.37
2019-05-10T19:12:17.594Z,1.60
2019-05-10T19:14:43.050Z,1.70
2019-05-10T19:17:12.726Z,1.73
2019-05-10T19:19:42.537Z,1.60
2019-05-10T19:22:12.544Z,1.70
2019-05-10T19:24:42.181Z,1.73
2019-05-10T19:27:11.803Z,1.70
2019-05-10T19:29:45.755Z,1.50
2019-05-10T19:32:18.060Z,1.37
2019-05-10T19:34:47.769Z,1.50
2019-05-10T19:37:27.922Z,1.90
2019-05-10T19:39:46.478Z,1.83
2019-05-10T19:42:16.213Z,1.50
2019-05-10T19:44:45.921Z,1.70
2019-05-10T19:47:17.766Z,1.83
2019-05-10T19:49:51.818Z,1.90
2019-05-10T19:52:21.244Z,1.83
2019-05-10T19:54:49.465Z,1.90
2019-05-10T19:57:19.128Z,1.80
2019-05-10T19:59:50.259Z,1.80
2019-05-10T20:02:20.024Z,2.20
2019-05-10T20:04:49.710Z,2.10
2019-05-10T20:07:19.933Z,2.10
2019-05-10T20:09:49.625Z,1.97
2019-05-10T20:12:19.205Z,1.90
2019-05-10T20:14:48.906Z,2.20
2019-05-10T20:17:21.727Z,1.80
2019-05-10T20:19:51.693Z,2.00
2019-05-10T20:22:22.318Z,2.07
2019-05-10T20:24:53.549Z,1.93
2019-05-10T20:27:23.205Z,2.20
2019-05-10T20:29:52.801Z,2.30
2019-05-10T20:32:22.455Z,2.17
2019-05-10T20:34:52.157Z,2.27
2019-05-10T20:37:22.912Z,2.30
2019-05-10T20:39:53.587Z,1.90
2019-05-10T20:42:23.231Z,2.30
2019-05-10T20:45:06.031Z,2.00
2019-05-10T20:47:24.129Z,2.20
2019-05-10T20:49:54.830Z,2.03
2019-05-10T20:52:24.992Z,2.00
2019-05-10T20:54:54.660Z,2.13
2019-05-10T20:57:24.388Z,2.10
2019-05-10T20:59:54.081Z,2.23
2019-05-10T21:02:23.749Z,2.00
2019-05-10T21:04:53.419Z,2.00
2019-05-10T21:07:23.126Z,2.40
2019-05-10T21:09:52.779Z,2.20
2019-05-10T21:12:22.441Z,2.40
2019-05-10T21:14:52.105Z,2.20
2019-05-10T21:17:22.724Z,2.17
2019-05-10T21:19:52.364Z,2.20
2019-05-10T21:22:22.075Z,2.70
2019-05-10T21:24:51.862Z,2.33
2019-05-10T21:27:21.620Z,2.20
2019-05-10T21:29:51.289Z,2.30
2019-05-10T21:32:21.030Z,2.40
2019-05-10T21:34:50.846Z,2.50
2019-05-10T21:37:20.614Z,2.40
2019-05-10T21:39:50.264Z,2.30
2019-05-10T21:42:19.933Z,2.00
2019-05-10T21:44:49.563Z,2.00
2019-05-10T21:47:19.266Z,2.00
2019-05-10T21:49:48.898Z,2.10
2019-05-10T21:52:18.533Z,2.20
2019-05-10T21:54:48.182Z,1.87
2019-05-10T21:57:17.861Z,1.80
2019-05-10T21:59:47.554Z,2.00
2019-05-10T22:02:18.282Z,2.40
2019-05-10T22:04:48.343Z,2.10
2019-05-10T22:07:18.108Z,1.80
2019-05-10T22:09:47.778Z,2.00
2019-05-10T22:12:17.418Z,1.60
2019-05-10T22:14:47.013Z,1.83
2019-05-10T22:17:16.668Z,1.80
2019-05-10T22:19:47.584Z,1.83
2019-05-10T22:22:17.237Z,2.10
2019-05-10T22:24:46.916Z,1.80
2019-05-10T22:27:16.497Z,1.70
2019-05-10T22:29:46.208Z,1.80
2019-05-10T22:32:16.869Z,1.80
2019-05-10T22:34:46.514Z,1.80
2019-05-10T22:37:16.284Z,1.80
2019-05-10T22:39:45.878Z,1.90
2019-05-10T22:42:15.601Z,1.90
2019-05-10T22:44:45.301Z,1.73
2019-05-10T22:47:14.964Z,1.93
2019-05-10T22:49:44.637Z,1.80
2019-05-10T22:52:14.358Z,1.80
2019-05-10T22:54:43.956Z,1.90
2019-05-10T22:57:13.546Z,1.70
2019-05-10T22:59:43.200Z,1.90
2019-05-10T23:02:12.890Z,2.10
2019-05-10T23:04:42.649Z,2.00
2019-05-10T23:07:12.364Z,2.00
2019-05-10T23:09:43.020Z,2.17
2019-05-10T23:12:12.713Z,2.00
2019-05-10T23:14:42.428Z,2.10
2019-05-10T23:17:12.109Z,2.10
2019-05-10T23:19:41.828Z,2.17
2019-05-10T23:22:11.483Z,1.83
2019-05-10T23:24:41.160Z,2.27
2019-05-10T23:27:10.826Z,2.20
2019-05-10T23:29:40.486Z,2.30
2019-05-10T23:32:11.190Z,2.20
2019-05-10T23:34:40.804Z,1.87
2019-05-10T23:37:10.391Z,2.30
2019-05-10T23:39:41.335Z,2.30
2019-05-10T23:42:11.233Z,2.47
2019-05-10T23:44:41.905Z,2.10
2019-05-10T23:47:11.592Z,2.40
2019-05-10T23:49:41.189Z,2.20
2019-05-10T23:52:10.911Z,2.40
2019-05-10T23:54:40.546Z,2.20
2019-05-10T23:57:10.248Z,2.17
2019-05-10T23:59:39.942Z,2.40
